Time;durP1;ratioP1;P1;durP2;ratioP2;P2;SDS_P1;SDS_P2;PMS_P1;PMS_P2;Temp;Humidity;BMP_temperature;BMP_pressure;BME280_temperature;BME280_humidity;BME280_pressure;Samples;Min_cycle;Max_cycle;Signal;HPM_P1;HPM_P2
2023/03/18 00:01:22;;;;;;;18.00;12.20;;;3.90;99.90;;;;;;4907410;29;20410;-80
2023/03/18 00:03:50;;;;;;;15.88;10.00;;;3.90;99.90;;;;;;4919594;29;20227;-80
2023/03/18 00:06:19;;;;;;;21.92;11.27;;;3.90;99.90;;;;;;4912288;29;20216;-81
2023/03/18 00:08:48;;;;;;;21.98;11.27;;;3.90;99.90;;;;;;4909675;29;20204;-80
2023/03/18 00:11:29;;;;;;;27.92;12.13;;;3.90;99.90;;;;;;4918565;29;20218;-81
2023/03/18 00:13:59;;;;;;;18.20;10.82;;;3.90;99.90;;;;;;4904564;29;20205;-82
2023/03/18 00:16:26;;;;;;;18.10;12.25;;;4.00;99.90;;;;;;4923282;29;20223;-79
2023/03/18 00:18:53;;;;;;;23.17;14.77;;;4.00;99.90;;;;;;4918886;29;20392;-82
2023/03/18 00:21:22;;;;;;;17.30;11.18;;;3.80;99.90;;;;;;4915528;29;20304;-80
2023/03/18 00:23:49;;;;;;;17.52;10.82;;;3.80;99.90;;;;;;4922001;29;20211;-82
2023/03/18 00:26:16;;;;;;;17.98;9.82;;;3.80;99.90;;;;;;4910308;29;20690;-80
2023/03/18 00:28:43;;;;;;;20.13;10.55;;;3.80;99.90;;;;;;4915872;29;20691;-81
2023/03/18 00:31:12;;;;;;;26.98;14.57;;;3.90;99.90;;;;;;4912981;29;20240;-82
2023/03/18 00:33:44;;;;;;;21.13;10.15;;;4.00;99.90;;;;;;4923621;29;20211;-81
2023/03/18 00:36:15;;;;;;;19.20;11.00;;;4.10;99.90;;;;;;4921521;29;20271;-83
2023/03/18 00:38:44;;;;;;;18.58;9.55;;;4.10;99.90;;;;;;4911739;29;20242;-81
2023/03/18 00:41:15;;;;;;;16.15;9.88;;;4.20;99.90;;;;;;4917924;29;20225;-82
2023/03/18 00:43:53;;;;;;;11.68;8.68;;;4.20;99.90;;;;;;4914595;29;20212;-80
2023/03/18 00:46:30;;;;;;;14.38;8.75;;;4.20;99.90;;;;;;4923254;29;20218;-81
2023/03/18 00:48:59;;;;;;;22.38;12.45;;;4.10;99.90;;;;;;4918779;29;20212;-83
2023/03/18 00:51:30;;;;;;;14.88;9.85;;;4.00;99.90;;;;;;4911170;29;20227;-81
2023/03/18 00:54:00;;;;;;;18.25;10.60;;;4.10;99.90;;;;;;4919309;29;20212;-82
2023/03/18 00:56:30;;;;;;;21.85;11.20;;;4.00;99.90;;;;;;4931468;29;20207;-81
2023/03/18 00:58:59;;;;;;;23.08;11.40;;;4.00;99.90;;;;;;4934829;29;20196;-83
2023/03/18 01:01:26;;;;;;;16.58;9.13;;;4.00;99.90;;;;;;4926372;29;20224;-80
2023/03/18 01:03:54;;;;;;;15.32;9.98;;;3.80;99.90;;;;;;4937498;29;20207;-80
2023/03/18 01:06:25;;;;;;;18.10;11.98;;;3.80;99.90;;;;;;4923758;29;20237;-80
2023/03/18 01:08:52;;;;;;;19.45;9.43;;;3.70;99.90;;;;;;4913348;29;20213;-80
2023/03/18 01:11:19;;;;;;;16.20;9.80;;;3.70;99.90;;;;;;4916667;29;20212;-80
2023/03/18 01:13:46;;;;;;;14.02;9.82;;;3.60;99.90;;;;;;4915439;29;20233;-82
2023/03/18 01:16:13;;;;;;;31.40;15.27;;;3.50;99.90;;;;;;4911993;29;20216;-81
2023/03/18 01:18:41;;;;;;;16.27;10.18;;;3.50;99.90;;;;;;4920098;29;20215;-81
2023/03/18 01:21:09;;;;;;;17.27;10.18;;;3.40;99.90;;;;;;4918287;29;20231;-81
2023/03/18 01:23:37;;;;;;;16.40;9.80;;;3.40;99.90;;;;;;4912176;29;20215;-80
2023/03/18 01:26:05;;;;;;;17.42;9.18;;;3.50;99.90;;;;;;4920419;29;20227;-80
2023/03/18 01:28:32;;;;;;;18.25;10.00;;;3.40;99.90;;;;;;4921152;29;20457;-83
2023/03/18 01:31:00;;;;;;;21.13;11.18;;;3.30;99.90;;;;;;4911354;29;20263;-81
2023/03/18 01:33:28;;;;;;;16.13;10.98;;;3.40;99.90;;;;;;4915317;29;20215;-80
2023/03/18 01:35:57;;;;;;;20.33;10.48;;;3.50;99.90;;;;;;4923110;29;20211;-81
2023/03/18 01:38:29;;;;;;;9.57;7.32;;;3.40;99.90;;;;;;4910682;29;20287;-80
2023/03/18 01:40:57;;;;;;;15.45;9.48;;;3.60;99.90;;;;;;4902629;29;20265;-82
2023/03/18 01:43:37;;;;;;;18.70;8.27;;;3.90;99.90;;;;;;4911314;29;20219;-81
2023/03/18 01:46:31;;;;;;;10.85;7.20;;;3.80;99.90;;;;;;4910984;29;20212;-80
2023/03/18 01:49:20;;;;;;;14.68;8.85;;;3.90;99.90;;;;;;4908800;29;20237;-80
2023/03/18 01:52:04;;;;;;;31.50;15.25;;;3.80;99.90;;;;;;4903260;29;20267;-81
2023/03/18 01:54:36;;;;;;;18.35;9.20;;;3.70;99.90;;;;;;4912448;29;20237;-84
2023/03/18 01:57:03;;;;;;;12.10;7.53;;;3.70;99.90;;;;;;4915550;29;20333;-81
2023/03/18 01:59:37;;;;;;;17.55;8.73;;;3.60;99.90;;;;;;4924227;29;20287;-80
2023/03/18 02:02:11;;;;;;;15.07;7.22;;;3.60;99.90;;;;;;4927334;29;20206;-83
2023/03/18 02:04:44;;;;;;;8.93;7.47;;;3.60;99.90;;;;;;4927709;29;20206;-81
2023/03/18 02:07:26;;;;;;;12.93;8.90;;;3.70;99.90;;;;;;4925527;29;20263;-80
2023/03/18 02:09:57;;;;;;;19.98;8.85;;;3.70;99.90;;;;;;4917229;29;20203;-80
2023/03/18 02:12:35;;;;;;;17.60;10.18;;;3.70;99.90;;;;;;4909750;29;20220;-81
2023/03/18 02:15:09;;;;;;;19.33;9.48;;;3.90;99.90;;;;;;4915050;29;20216;-81
2023/03/18 02:17:41;;;;;;;13.70;8.93;;;4.00;99.90;;;;;;4921269;29;20220;-81
2023/03/18 02:20:08;;;;;;;15.90;8.10;;;4.10;99.90;;;;;;4914176;29;20260;-81
2023/03/18 02:22:42;;;;;;;13.23;9.65;;;4.10;99.90;;;;;;4918134;29;20247;-81
2023/03/18 02:25:24;;;;;;;13.65;7.60;;;4.10;99.90;;;;;;4910636;29;20208;-81
2023/03/18 02:27:55;;;;;;;16.55;8.18;;;4.20;99.90;;;;;;4908084;29;20234;-81
2023/03/18 02:30:30;;;;;;;14.80;8.40;;;4.10;99.90;;;;;;4921091;29;20216;-81
2023/03/18 02:32:59;;;;;;;10.75;7.47;;;4.00;99.90;;;;;;4912609;29;20220;-81
2023/03/18 02:35:30;;;;;;;11.95;8.50;;;4.00;99.90;;;;;;4912935;29;20212;-82
2023/03/18 02:37:57;;;;;;;10.40;8.50;;;4.00;99.90;;;;;;4912398;29;20310;-81
2023/03/18 02:40:31;;;;;;;21.20;18.95;;;4.00;99.90;;;;;;4913920;29;20213;-83
2023/03/18 02:43:31;;;;;;;12.15;9.63;;;4.10;99.90;;;;;;4909633;29;20310;-82
2023/03/18 02:46:20;;;;;;;11.60;7.22;;;4.10;99.90;;;;;;4864789;29;20256;-83
2023/03/18 02:48:48;;;;;;;16.80;7.43;;;4.10;99.90;;;;;;4917574;29;20538;-81
2023/03/18 02:51:17;;;;;;;14.00;8.07;;;4.10;99.90;;;;;;4920063;29;20216;-82
2023/03/18 02:53:44;;;;;;;13.93;6.65;;;4.00;99.90;;;;;;4910771;29;20199;-82
2023/03/18 02:56:12;;;;;;;11.50;7.32;;;4.00;99.90;;;;;;4910941;29;20216;-80
2023/03/18 02:58:40;;;;;;;11.93;6.55;;;3.90;99.90;;;;;;4912726;29;20232;-81
2023/03/18 03:01:07;;;;;;;11.65;7.40;;;3.90;99.90;;;;;;4905024;29;20248;-82
2023/03/18 03:03:36;;;;;;;13.73;7.78;;;4.00;99.90;;;;;;4914462;29;20427;-81
2023/03/18 03:06:03;;;;;;;23.52;10.80;;;4.00;99.90;;;;;;4915912;29;20783;-82
2023/03/18 03:08:31;;;;;;;27.88;16.20;;;4.00;99.90;;;;;;4916733;29;20504;-82
2023/03/18 03:10:58;;;;;;;15.25;10.13;;;4.00;99.90;;;;;;4920938;29;20515;-81
2023/03/18 03:13:25;;;;;;;9.02;6.80;;;4.10;99.90;;;;;;4920688;29;20207;-81
2023/03/18 03:15:52;;;;;;;12.13;6.75;;;4.10;99.90;;;;;;4915124;29;20236;-83
2023/03/18 03:18:20;;;;;;;8.70;7.32;;;4.10;99.90;;;;;;4912875;29;20213;-83
2023/03/18 03:20:49;;;;;;;17.85;8.13;;;4.10;99.90;;;;;;4914116;29;20204;-85
2023/03/18 03:23:16;;;;;;;13.32;6.53;;;4.20;99.90;;;;;;4920919;29;20211;-82
2023/03/18 03:25:43;;;;;;;8.27;6.38;;;4.20;99.90;;;;;;4912655;29;20508;-81
2023/03/18 03:28:12;;;;;;;9.90;5.70;;;4.20;99.90;;;;;;4919439;29;20481;-81
2023/03/18 03:30:39;;;;;;;9.85;5.72;;;4.20;99.90;;;;;;4907953;29;20213;-82
2023/03/18 03:33:07;;;;;;;11.50;6.55;;;4.10;99.90;;;;;;4913635;29;20229;-82
2023/03/18 03:35:34;;;;;;;17.30;9.13;;;4.10;99.90;;;;;;4910180;29;20204;-81
2023/03/18 03:38:02;;;;;;;16.90;9.15;;;4.10;99.90;;;;;;4917904;29;20732;-83
2023/03/18 03:40:29;;;;;;;17.27;8.60;;;4.10;99.90;;;;;;4911823;29;20212;-81
2023/03/18 03:42:56;;;;;;;13.23;6.90;;;4.10;99.90;;;;;;4908150;29;20251;-81
2023/03/18 03:45:23;;;;;;;9.98;6.45;;;4.10;99.90;;;;;;4901651;29;20738;-81
2023/03/18 03:47:51;;;;;;;11.93;7.85;;;4.20;99.90;;;;;;4913979;29;20259;-81
2023/03/18 03:50:18;;;;;;;10.23;7.05;;;4.10;99.90;;;;;;4916194;29;20287;-81
2023/03/18 03:52:45;;;;;;;10.63;6.68;;;4.10;99.90;;;;;;4919857;29;20219;-82
2023/03/18 03:55:16;;;;;;;9.73;8.13;;;4.10;99.90;;;;;;4919712;29;20240;-83
2023/03/18 03:57:44;;;;;;;11.15;7.10;;;4.10;99.90;;;;;;4913572;29;20205;-82
2023/03/18 04:00:15;;;;;;;14.02;7.32;;;4.10;99.90;;;;;;4913403;29;20212;-82
2023/03/18 04:02:43;;;;;;;10.75;6.25;;;4.10;99.90;;;;;;4904278;29;20477;-83
2023/03/18 04:05:13;;;;;;;12.02;6.15;;;4.10;99.90;;;;;;4917738;29;20527;-84
2023/03/18 04:07:41;;;;;;;10.73;6.65;;;4.20;99.90;;;;;;4921011;29;20215;-83
2023/03/18 04:10:10;;;;;;;8.90;5.72;;;4.30;99.90;;;;;;4921063;29;20208;-81
2023/03/18 04:12:38;;;;;;;8.75;6.00;;;4.30;99.90;;;;;;4913524;29;20212;-82
2023/03/18 04:15:06;;;;;;;9.35;5.75;;;4.30;99.90;;;;;;4921948;29;20208;-82
2023/03/18 04:17:34;;;;;;;7.35;4.30;;;4.30;99.90;;;;;;4919965;29;20272;-80
2023/03/18 04:20:02;;;;;;;6.68;4.70;;;4.30;99.90;;;;;;4913925;29;20380;-82
2023/03/18 04:22:29;;;;;;;8.82;5.00;;;4.40;99.90;;;;;;4913252;29;20235;-81
2023/03/18 04:24:56;;;;;;;7.53;5.28;;;4.40;99.90;;;;;;4914665;29;20200;-82
2023/03/18 04:27:24;;;;;;;9.02;5.03;;;4.50;99.90;;;;;;4906959;29;20204;-79
2023/03/18 04:29:51;;;;;;;6.40;4.65;;;4.50;99.90;;;;;;4920682;29;20216;-80
2023/03/18 04:32:18;;;;;;;5.15;4.28;;;4.50;99.90;;;;;;4919889;29;20440;-79
2023/03/18 04:34:45;;;;;;;9.90;5.15;;;4.60;99.90;;;;;;4912304;29;20227;-79
2023/03/18 04:37:13;;;;;;;6.60;4.80;;;4.50;99.90;;;;;;4912666;29;20235;-79
2023/03/18 04:39:40;;;;;;;7.75;4.47;;;4.50;99.90;;;;;;4916287;29;20216;-79
2023/03/18 04:42:08;;;;;;;8.15;4.70;;;4.50;99.90;;;;;;4920327;29;20235;-80
2023/03/18 04:44:36;;;;;;;6.07;5.05;;;4.50;99.90;;;;;;4909157;29;20259;-82
2023/03/18 04:47:03;;;;;;;13.27;5.40;;;4.40;99.90;;;;;;4915653;29;20339;-82
2023/03/18 04:49:29;;;;;;;10.25;6.28;;;4.40;99.90;;;;;;4917829;29;20240;-82
2023/03/18 04:51:56;;;;;;;11.25;6.30;;;4.50;99.90;;;;;;4909109;29;20243;-82
2023/03/18 04:54:23;;;;;;;9.63;5.30;;;4.50;99.90;;;;;;4912102;29;20521;-81
2023/03/18 04:56:50;;;;;;;6.07;4.97;;;4.60;99.90;;;;;;4911603;29;20222;-82
2023/03/18 04:59:17;;;;;;;5.45;4.53;;;4.60;99.90;;;;;;4916183;29;20223;-81
2023/03/18 05:01:44;;;;;;;6.43;4.70;;;4.60;99.90;;;;;;4908711;29;20291;-82
2023/03/18 05:04:11;;;;;;;8.18;4.30;;;4.60;99.90;;;;;;4919701;29;20520;-80
2023/03/18 05:06:38;;;;;;;12.02;5.30;;;4.60;99.90;;;;;;4907000;29;20279;-80
2023/03/18 05:09:05;;;;;;;6.65;4.65;;;4.60;99.90;;;;;;4914119;29;20228;-81
2023/03/18 05:11:32;;;;;;;9.40;4.70;;;4.70;99.90;;;;;;4910447;29;20212;-78
2023/03/18 05:13:58;;;;;;;6.82;4.95;;;4.60;99.90;;;;;;4914173;29;20207;-80
2023/03/18 05:16:26;;;;;;;11.90;5.63;;;4.70;99.90;;;;;;4923321;29;20212;-80
2023/03/18 05:18:53;;;;;;;7.85;5.32;;;4.90;99.90;;;;;;4910641;29;20216;-80
2023/03/18 05:21:20;;;;;;;5.63;4.40;;;5.10;99.90;;;;;;4918039;29;20216;-81
2023/03/18 05:23:47;;;;;;;5.75;4.43;;;5.10;99.90;;;;;;4911870;29;20216;-81
2023/03/18 05:26:14;;;;;;;7.90;4.20;;;5.20;99.90;;;;;;4915417;29;20212;-81
2023/03/18 05:28:41;;;;;;;4.30;3.90;;;5.20;99.90;;;;;;4921032;29;20201;-80
2023/03/18 05:31:07;;;;;;;6.90;3.58;;;5.40;99.90;;;;;;4918189;29;20207;-80
2023/03/18 05:33:35;;;;;;;9.90;4.50;;;5.50;99.90;;;;;;4926177;29;20215;-80
2023/03/18 05:36:02;;;;;;;6.70;4.65;;;5.50;99.90;;;;;;4934682;29;20187;-80
2023/03/18 05:38:29;;;;;;;8.07;5.25;;;5.60;99.90;;;;;;4938189;29;20196;-80
2023/03/18 05:40:56;;;;;;;6.03;4.50;;;5.60;99.90;;;;;;4922918;29;20239;-81
2023/03/18 05:43:23;;;;;;;5.45;4.10;;;5.60;99.90;;;;;;4935820;29;20224;-80
2023/03/18 05:45:51;;;;;;;5.47;4.40;;;5.70;99.90;;;;;;4929767;29;20220;-81
2023/03/18 05:48:19;;;;;;;3.80;3.00;;;5.70;99.90;;;;;;4925185;29;20307;-81
2023/03/18 05:50:46;;;;;;;6.40;3.95;;;5.80;99.90;;;;;;4924950;29;20231;-81
2023/03/18 05:53:15;;;;;;;8.43;3.55;;;5.90;99.90;;;;;;4931186;29;20200;-81
2023/03/18 05:55:42;;;;;;;7.53;4.07;;;6.00;99.90;;;;;;4935486;29;20256;-80
2023/03/18 05:58:11;;;;;;;5.40;3.63;;;6.10;99.90;;;;;;4934933;29;20186;-80
2023/03/18 06:00:38;;;;;;;6.25;3.97;;;6.20;99.90;;;;;;4939172;29;20204;-82
2023/03/18 06:03:05;;;;;;;8.07;4.65;;;6.30;99.90;;;;;;4919623;29;20268;-80
2023/03/18 06:05:32;;;;;;;4.55;3.13;;;6.40;99.90;;;;;;4925498;29;20216;-81
2023/03/18 06:08:00;;;;;;;5.05;2.70;;;6.50;99.90;;;;;;4916936;29;20201;-81
2023/03/18 06:10:29;;;;;;;4.55;4.07;;;6.80;99.90;;;;;;4908301;29;20213;-80
2023/03/18 06:12:56;;;;;;;7.82;4.10;;;6.90;99.90;;;;;;4922344;29;20259;-80
2023/03/18 06:15:24;;;;;;;5.70;4.15;;;6.90;99.90;;;;;;4920823;29;20261;-80
2023/03/18 06:17:51;;;;;;;3.95;3.20;;;7.10;99.90;;;;;;4914649;29;20566;-80
2023/03/18 06:20:19;;;;;;;4.50;3.20;;;7.30;99.90;;;;;;4913895;29;20213;-80
2023/03/18 06:22:49;;;;;;;6.25;3.97;;;7.50;99.90;;;;;;4915183;29;20234;-80
2023/03/18 06:25:18;;;;;;;3.90;3.05;;;7.60;99.90;;;;;;4911124;29;20223;-80
2023/03/18 06:27:46;;;;;;;6.70;3.30;;;7.70;99.90;;;;;;4920888;29;20316;-80
2023/03/18 06:30:16;;;;;;;4.28;3.25;;;7.90;99.90;;;;;;4920408;29;20260;-81
2023/03/18 06:32:43;;;;;;;11.63;4.53;;;8.00;99.90;;;;;;4920757;29;20292;-79
2023/03/18 06:35:11;;;;;;;4.07;3.78;;;8.40;99.90;;;;;;4919415;29;20276;-80
2023/03/18 06:37:41;;;;;;;5.50;4.47;;;8.80;99.90;;;;;;4922412;29;20228;-79
2023/03/18 06:40:11;;;;;;;4.07;3.40;;;9.00;99.90;;;;;;4909825;29;20422;-80
2023/03/18 06:42:38;;;;;;;4.22;3.72;;;9.30;99.90;;;;;;4911580;29;20258;-80
2023/03/18 06:45:06;;;;;;;9.68;4.43;;;9.60;99.90;;;;;;4913420;29;20209;-80
2023/03/18 06:47:34;;;;;;;6.35;3.65;;;9.70;99.90;;;;;;4912880;29;20215;-79
2023/03/18 06:50:04;;;;;;;5.22;3.38;;;9.80;99.90;;;;;;4921704;29;20253;-80
2023/03/18 06:52:46;;;;;;;3.38;2.80;;;9.80;99.90;;;;;;4912600;29;20212;-80
2023/03/18 06:55:14;;;;;;;9.10;3.65;;;9.80;99.90;;;;;;4912323;29;20204;-80
2023/03/18 06:57:41;;;;;;;5.55;3.55;;;9.80;99.90;;;;;;4916112;29;20218;-80
2023/03/18 07:00:09;;;;;;;4.05;3.42;;;10.00;99.90;;;;;;4916176;29;20250;-82
2023/03/18 07:02:37;;;;;;;6.25;3.70;;;10.00;99.90;;;;;;4921615;29;20227;-80
2023/03/18 07:05:06;;;;;;;4.25;3.28;;;10.10;99.90;;;;;;4914111;29;20244;-80
2023/03/18 07:07:33;;;;;;;4.13;3.50;;;9.80;99.90;;;;;;4917448;29;20240;-82
2023/03/18 07:10:01;;;;;;;5.40;4.05;;;9.80;99.90;;;;;;4910329;29;20512;-79
2023/03/18 07:12:30;;;;;;;7.97;3.58;;;9.80;99.90;;;;;;4905653;29;20271;-81
2023/03/18 07:15:00;;;;;;;3.90;3.38;;;9.80;99.90;;;;;;4909931;29;20310;-80
2023/03/18 07:17:28;;;;;;;8.25;5.45;;;10.00;99.90;;;;;;4910597;29;20308;-79
2023/03/18 07:19:55;;;;;;;6.07;3.90;;;10.00;99.90;;;;;;4912689;29;20198;-81
2023/03/18 07:22:23;;;;;;;5.25;3.72;;;10.00;99.90;;;;;;4902625;29;20289;-81
2023/03/18 07:24:53;;;;;;;4.60;3.65;;;10.10;99.90;;;;;;4905757;29;20398;-79
2023/03/18 07:27:22;;;;;;;4.78;3.92;;;10.40;99.90;;;;;;4911748;29;20214;-82
2023/03/18 07:29:49;;;;;;;4.32;3.20;;;10.50;99.90;;;;;;4912665;29;20282;-79
2023/03/18 07:32:18;;;;;;;4.72;3.60;;;10.60;99.90;;;;;;4916336;29;20213;-78
2023/03/18 07:34:46;;;;;;;6.30;3.25;;;10.60;99.90;;;;;;4913043;29;20582;-80
2023/03/18 07:37:14;;;;;;;6.72;4.50;;;10.60;99.90;;;;;;4916254;29;20267;-79
2023/03/18 07:39:42;;;;;;;8.80;5.03;;;10.70;99.90;;;;;;4917359;29;20509;-79
2023/03/18 07:42:10;;;;;;;9.98;3.35;;;10.90;99.90;;;;;;4918777;29;20417;-78
2023/03/18 07:44:37;;;;;;;4.60;3.35;;;11.20;99.90;;;;;;4908885;29;20236;-81
2023/03/18 07:47:04;;;;;;;5.43;3.80;;;11.60;99.90;;;;;;4915014;29;20206;-80
2023/03/18 07:49:33;;;;;;;3.55;3.05;;;11.60;99.90;;;;;;4918804;29;20259;-78
2023/03/18 07:52:01;;;;;;;7.13;3.88;;;11.90;99.90;;;;;;4919541;29;20219;-80
2023/03/18 07:54:28;;;;;;;5.72;3.70;;;12.30;99.90;;;;;;4909208;29;20214;-79
2023/03/18 07:56:55;;;;;;;9.07;3.83;;;12.30;99.90;;;;;;4916043;29;20219;-79
2023/03/18 07:59:23;;;;;;;6.22;3.67;;;12.50;99.90;;;;;;4918512;29;20219;-79
2023/03/18 08:01:50;;;;;;;4.95;4.20;;;12.70;99.40;;;;;;4914404;29;20251;-79
2023/03/18 08:04:18;;;;;;;7.32;3.50;;;12.90;98.10;;;;;;4916309;29;20289;-79
2023/03/18 08:06:45;;;;;;;3.97;3.63;;;13.30;97.60;;;;;;4917071;29;20236;-79
2023/03/18 08:09:11;;;;;;;7.27;4.10;;;13.80;96.90;;;;;;4911423;29;20270;-80
2023/03/18 08:11:39;;;;;;;3.30;2.97;;;13.90;94.70;;;;;;4917652;29;20451;-78
2023/03/18 08:14:06;;;;;;;6.27;3.37;;;13.80;94.60;;;;;;4905589;29;20225;-79
2023/03/18 08:16:32;;;;;;;4.83;3.50;;;13.60;95.10;;;;;;4910245;29;20500;-80
2023/03/18 08:18:59;;;;;;;4.93;3.70;;;13.30;95.70;;;;;;4911718;29;20795;-79
2023/03/18 08:21:26;;;;;;;3.42;3.13;;;13.30;95.80;;;;;;4919963;29;20223;-82
2023/03/18 08:23:53;;;;;;;6.82;4.07;;;13.30;94.20;;;;;;4909757;29;20314;-78
2023/03/18 08:26:20;;;;;;;3.08;2.75;;;13.40;94.40;;;;;;4918143;29;20212;-79
2023/03/18 08:28:48;;;;;;;5.50;5.00;;;13.80;93.20;;;;;;4919594;29;20237;-80
2023/03/18 08:31:14;;;;;;;5.47;3.87;;;13.60;95.20;;;;;;4917685;29;20208;-78
2023/03/18 08:33:42;;;;;;;5.40;3.70;;;14.20;92.00;;;;;;4922750;29;20620;-79
2023/03/18 08:36:09;;;;;;;4.87;3.80;;;14.20;94.20;;;;;;4914195;29;20444;-80
2023/03/18 08:38:36;;;;;;;5.65;4.32;;;14.30;93.20;;;;;;4910111;29;20459;-80
2023/03/18 08:41:03;;;;;;;3.50;3.10;;;14.10;92.10;;;;;;4915835;29;20200;-80
2023/03/18 08:43:30;;;;;;;6.93;3.87;;;13.80;92.70;;;;;;4915506;29;20487;-80
2023/03/18 08:45:57;;;;;;;4.32;3.25;;;13.40;91.90;;;;;;4916537;29;20458;-80
2023/03/18 08:48:24;;;;;;;7.65;4.68;;;13.20;94.00;;;;;;4917112;29;20645;-79
2023/03/18 08:50:52;;;;;;;5.85;3.63;;;13.60;93.50;;;;;;4909908;29;20220;-80
2023/03/18 08:53:19;;;;;;;8.13;3.92;;;13.70;93.80;;;;;;4922293;29;20238;-81
2023/03/18 08:55:47;;;;;;;4.53;3.33;;;13.60;92.20;;;;;;4919798;29;20212;-83
2023/03/18 08:58:14;;;;;;;3.13;2.72;;;13.60;93.20;;;;;;4915603;29;20533;-79
2023/03/18 09:00:48;;;;;;;3.97;3.57;;;13.70;92.70;;;;;;4917554;29;20264;-79
2023/03/18 09:03:18;;;;;;;4.28;2.95;;;13.80;91.80;;;;;;4923217;29;20531;-79
2023/03/18 09:05:48;;;;;;;8.63;4.43;;;14.20;93.00;;;;;;4922842;29;20240;-81
2023/03/18 09:08:14;;;;;;;4.90;4.40;;;14.50;89.40;;;;;;4923148;29;20475;-81
2023/03/18 09:10:44;;;;;;;4.40;3.40;;;15.30;90.10;;;;;;4923281;29;20454;-80
2023/03/18 09:13:11;;;;;;;6.20;3.57;;;15.60;86.80;;;;;;4911780;29;20423;-81
2023/03/18 09:15:40;;;;;;;2.93;2.63;;;16.00;83.20;;;;;;4923830;29;20417;-79
2023/03/18 09:18:07;;;;;;;4.43;3.60;;;15.80;83.50;;;;;;4916206;29;20458;-81
2023/03/18 09:20:39;;;;;;;8.17;4.20;;;16.00;83.30;;;;;;4923048;29;20435;-79
2023/03/18 09:23:06;;;;;;;3.93;3.27;;;15.60;82.20;;;;;;4925360;29;20465;-81
2023/03/18 09:25:34;;;;;;;3.47;3.17;;;15.40;83.90;;;;;;4922978;29;20672;-79
2023/03/18 09:28:01;;;;;;;5.67;3.30;;;15.70;79.40;;;;;;4910339;29;20430;-79
2023/03/18 09:30:28;;;;;;;8.17;4.50;;;15.70;85.60;;;;;;4912547;29;20446;-80
2023/03/18 09:32:56;;;;;;;4.57;3.40;;;15.90;79.70;;;;;;4914716;29;20968;-80
2023/03/18 09:35:23;;;;;;;3.57;3.13;;;16.00;78.20;;;;;;4921927;29;20461;-81
2023/03/18 09:37:50;;;;;;;5.40;4.07;;;15.60;82.40;;;;;;4922145;29;20620;-81
2023/03/18 09:40:30;;;;;;;7.43;3.80;;;15.30;82.30;;;;;;4913842;29;20512;-79
2023/03/18 09:43:25;;;;;;;11.80;5.23;;;15.10;82.60;;;;;;4910782;29;20494;-79
2023/03/18 09:46:20;;;;;;;8.80;3.47;;;15.30;81.10;;;;;;4920646;29;20425;-81
2023/03/18 09:49:13;;;;;;;6.00;3.57;;;15.20;79.30;;;;;;4921758;29;20443;-80
2023/03/18 09:52:20;;;;;;;3.60;3.00;;;15.10;85.10;;;;;;4917640;29;20795;-80
2023/03/18 09:54:52;;;;;;;6.30;3.60;;;14.90;85.70;;;;;;4910642;29;20975;-80
2023/03/18 09:57:36;;;;;;;5.20;3.57;;;14.80;79.90;;;;;;4922096;29;20447;-81
2023/03/18 10:00:10;;;;;;;3.70;3.07;;;14.70;83.50;;;;;;4910640;29;20503;-78
2023/03/18 10:02:49;;;;;;;10.63;4.33;;;14.60;84.00;;;;;;4920911;29;20443;-80
2023/03/18 10:05:43;;;;;;;7.30;3.80;;;14.70;84.60;;;;;;4920630;29;20727;-79
2023/03/18 10:08:21;;;;;;;4.30;3.90;;;14.70;81.60;;;;;;4930547;29;20475;-80
2023/03/18 10:10:49;;;;;;;6.20;3.67;;;14.70;81.90;;;;;;4934947;29;20431;-79
2023/03/18 10:13:32;;;;;;;5.10;3.70;;;14.90;83.10;;;;;;4938952;29;20451;-79
2023/03/18 10:16:03;;;;;;;4.27;3.20;;;14.80;82.50;;;;;;4932290;29;20447;-79
2023/03/18 10:18:36;;;;;;;4.00;3.30;;;14.70;85.60;;;;;;4922777;29;20426;-79
2023/03/18 10:21:03;;;;;;;10.90;6.43;;;14.70;84.60;;;;;;4914609;29;20454;-80
2023/03/18 10:23:32;;;;;;;10.27;6.00;;;14.90;85.80;;;;;;4912204;29;20492;-79
2023/03/18 10:26:08;;;;;;;6.53;4.07;;;14.60;83.70;;;;;;4919404;29;20421;-78
2023/03/18 10:28:59;;;;;;;4.30;3.80;;;14.60;84.40;;;;;;4911871;29;20447;-79
2023/03/18 10:32:14;;;;;;;6.87;4.30;;;14.60;84.10;;;;;;4921617;29;20436;-80
2023/03/18 10:34:44;;;;;;;5.97;3.53;;;14.50;85.80;;;;;;4902461;29;20472;-79
2023/03/18 10:37:50;;;;;;;6.00;3.40;;;14.40;83.60;;;;;;4906236;29;20463;-78
2023/03/18 10:40:23;;;;;;;3.83;3.13;;;14.40;85.10;;;;;;4914556;29;20454;-79
2023/03/18 10:42:52;;;;;;;5.20;3.30;;;14.40;84.30;;;;;;4923161;29;20477;-79
2023/03/18 10:45:33;;;;;;;5.93;4.30;;;14.50;86.40;;;;;;4914189;29;20463;-78
2023/03/18 10:48:11;;;;;;;5.20;3.23;;;14.60;87.30;;;;;;4917516;29;20443;-81
2023/03/18 10:50:49;;;;;;;5.07;4.53;;;14.80;83.10;;;;;;4904148;29;20455;-79
2023/03/18 10:53:31;;;;;;;9.60;4.47;;;14.70;82.10;;;;;;4919303;29;20447;-80
2023/03/18 10:56:10;;;;;;;4.00;2.90;;;14.70;84.50;;;;;;4911189;29;20920;-81
2023/03/18 10:58:38;;;;;;;4.60;3.90;;;14.90;82.80;;;;;;4903311;29;20552;-81
2023/03/18 11:01:07;;;;;;;7.20;4.50;;;14.70;82.50;;;;;;4911567;29;20484;-81
2023/03/18 11:03:51;;;;;;;6.00;3.83;;;14.60;82.90;;;;;;4907058;29;20513;-81
2023/03/18 11:06:24;;;;;;;5.20;3.83;;;14.70;84.20;;;;;;4912422;29;20411;-82
2023/03/18 11:09:01;;;;;;;4.60;3.93;;;14.70;82.00;;;;;;4907788;29;20444;-80
2023/03/18 11:11:32;;;;;;;5.07;3.67;;;14.70;83.20;;;;;;4907380;29;20452;-79
2023/03/18 11:14:03;;;;;;;5.73;4.50;;;14.70;82.20;;;;;;4920307;29;20625;-79
2023/03/18 11:16:41;;;;;;;7.70;4.10;;;14.70;83.70;;;;;;4915575;29;20724;-80
2023/03/18 11:19:32;;;;;;;9.20;4.60;;;14.80;83.80;;;;;;4908774;29;20465;-80
2023/03/18 11:22:04;;;;;;;9.87;4.30;;;14.70;80.50;;;;;;4915170;29;20462;-80
2023/03/18 11:24:35;;;;;;;5.57;4.33;;;14.70;85.70;;;;;;4913679;29;20838;-78
2023/03/18 11:27:03;;;;;;;7.60;4.97;;;14.80;84.60;;;;;;4918073;29;20668;-79
2023/03/18 11:29:33;;;;;;;10.60;6.20;;;14.90;82.80;;;;;;4913537;29;20760;-81
2023/03/18 11:32:01;;;;;;;11.53;6.07;;;14.80;84.30;;;;;;4913850;29;20444;-80
2023/03/18 11:34:30;;;;;;;5.60;4.17;;;14.80;84.40;;;;;;4910657;29;20775;-80
2023/03/18 11:37:07;;;;;;;7.60;5.40;;;14.90;86.50;;;;;;4919666;29;20473;-80
2023/03/18 11:39:36;;;;;;;6.50;5.80;;;14.90;82.70;;;;;;4930178;29;20452;-80
2023/03/18 11:42:20;;;;;;;9.00;5.03;;;14.70;83.70;;;;;;4928906;29;20475;-80
2023/03/18 11:44:54;;;;;;;5.60;4.70;;;14.60;87.40;;;;;;4927396;29;20445;-81
2023/03/18 11:47:31;;;;;;;7.23;5.70;;;14.60;87.40;;;;;;4922889;29;21056;-80
2023/03/18 11:49:59;;;;;;;7.90;4.50;;;14.70;90.40;;;;;;4917700;29;20503;-79
2023/03/18 11:52:31;;;;;;;6.37;4.00;;;14.80;88.10;;;;;;4910395;29;20637;-80
2023/03/18 11:55:36;;;;;;;6.10;3.87;;;14.80;85.90;;;;;;4915153;29;20499;-80
2023/03/18 11:58:23;;;;;;;8.10;4.60;;;14.90;85.10;;;;;;4913301;29;20455;-81
2023/03/18 12:01:16;;;;;;;4.20;3.80;;;14.90;86.60;;;;;;4876991;29;20451;-81
2023/03/18 12:03:52;;;;;;;8.70;5.50;;;15.00;86.20;;;;;;4913170;29;20480;-81
2023/03/18 12:06:27;;;;;;;6.60;4.43;;;15.10;86.30;;;;;;4919084;29;20442;-82
2023/03/18 12:08:55;;;;;;;11.43;5.07;;;14.90;87.50;;;;;;4913981;29;20494;-81
2023/03/18 12:11:54;;;;;;;4.77;4.33;;;14.90;88.30;;;;;;4919032;29;20478;-81
2023/03/18 12:14:43;;;;;;;10.03;4.70;;;14.90;90.20;;;;;;4917956;29;20419;-81
2023/03/18 12:17:40;;;;;;;4.97;3.73;;;14.90;89.30;;;;;;4918873;29;20481;-81
2023/03/18 12:20:12;;;;;;;11.70;5.37;;;15.10;88.20;;;;;;4913855;29;20447;-84
2023/03/18 12:22:55;;;;;;;5.93;4.37;;;15.00;86.70;;;;;;4913138;29;20418;-81
2023/03/18 12:25:57;;;;;;;8.00;6.20;;;14.90;88.10;;;;;;4913440;29;20531;-80
2023/03/18 12:28:45;;;;;;;21.07;6.33;;;14.90;86.70;;;;;;4917799;29;20690;-80
2023/03/18 12:31:51;;;;;;;8.80;5.27;;;14.80;90.60;;;;;;4920888;29;21511;-81
2023/03/18 12:34:35;;;;;;;6.80;5.23;;;14.80;85.70;;;;;;4923254;29;21062;-81
2023/03/18 12:37:15;;;;;;;6.50;4.63;;;14.70;90.00;;;;;;4910597;29;20470;-82
2023/03/18 12:40:06;;;;;;;8.53;4.63;;;14.80;89.90;;;;;;4912038;29;21186;-82
2023/03/18 12:42:54;;;;;;;6.13;4.47;;;15.00;90.60;;;;;;4918336;29;20426;-82
2023/03/18 12:45:26;;;;;;;12.03;4.40;;;15.00;90.10;;;;;;4914285;29;20484;-81
2023/03/18 12:47:54;;;;;;;12.23;4.50;;;15.00;89.40;;;;;;4917621;29;20437;-82
2023/03/18 12:50:24;;;;;;;5.33;4.83;;;15.10;89.30;;;;;;4917128;29;20467;-82
2023/03/18 12:52:57;;;;;;;6.63;4.20;;;15.00;86.10;;;;;;4910518;29;20532;-81
2023/03/18 12:55:36;;;;;;;8.40;5.37;;;15.00;88.70;;;;;;4921471;29;20498;-79
2023/03/18 12:58:18;;;;;;;11.50;5.77;;;14.90;89.30;;;;;;4917819;29;20502;-82
2023/03/18 13:01:07;;;;;;;9.90;6.70;;;15.00;87.10;;;;;;4918446;29;20443;-81
2023/03/18 13:03:42;;;;;;;8.50;5.67;;;15.10;86.00;;;;;;4910974;29;20413;-81
2023/03/18 13:06:28;;;;;;;5.97;4.73;;;15.10;89.10;;;;;;4918578;29;20604;-79
2023/03/18 13:09:20;;;;;;;6.67;5.30;;;15.00;90.60;;;;;;4909661;29;21182;-80
2023/03/18 13:12:19;;;;;;;10.63;6.20;;;15.20;88.30;;;;;;4920439;29;20449;-81